sensor_id;sensor_type;location;lat;lon;timestamp;P1;durP1;ratioP1;P2;durP2;ratioP2
78372;SDS011;67656;52.074;4.758;2023-07-13T00:00:41;13.90;;;3.25;;
78372;SDS011;67656;52.074;4.758;2023-07-13T00:05:42;13.05;;;2.92;;
78372;SDS011;67656;52.074;4.758;2023-07-13T00:10:42;10.05;;;2.58;;
78372;SDS011;67656;52.074;4.758;2023-07-13T00:15:42;12.57;;;2.63;;
78372;SDS011;67656;52.074;4.758;2023-07-13T00:20:43;17.20;;;3.00;;
78372;SDS011;67656;52.074;4.758;2023-07-13T00:25:43;16.40;;;3.35;;
78372;SDS011;67656;52.074;4.758;2023-07-13T00:30:44;19.63;;;3.03;;
78372;SDS011;67656;52.074;4.758;2023-07-13T00:35:44;14.60;;;3.00;;
78372;SDS011;67656;52.074;4.758;2023-07-13T00:40:45;13.60;;;2.78;;
78372;SDS011;67656;52.074;4.758;2023-07-13T00:50:48;11.48;;;2.65;;
78372;SDS011;67656;52.074;4.758;2023-07-13T00:55:52;14.32;;;2.78;;
78372;SDS011;67656;52.074;4.758;2023-07-13T01:00:56;11.30;;;2.58;;
78372;SDS011;67656;52.074;4.758;2023-07-13T01:05:56;11.07;;;2.45;;
78372;SDS011;67656;52.074;4.758;2023-07-13T01:10:57;13.05;;;2.40;;
78372;SDS011;67656;52.074;4.758;2023-07-13T01:15:58;8.07;;;2.08;;
78372;SDS011;67656;52.074;4.758;2023-07-13T01:21:05;5.88;;;1.80;;
78372;SDS011;67656;52.074;4.758;2023-07-13T01:26:05;10.05;;;2.17;;
78372;SDS011;67656;52.074;4.758;2023-07-13T01:31:06;13.70;;;2.50;;
78372;SDS011;67656;52.074;4.758;2023-07-13T01:36:07;11.23;;;2.38;;
78372;SDS011;67656;52.074;4.758;2023-07-13T01:41:09;17.08;;;2.88;;
78372;SDS011;67656;52.074;4.758;2023-07-13T01:46:09;12.63;;;2.88;;
78372;SDS011;67656;52.074;4.758;2023-07-13T01:51:10;10.70;;;2.10;;
78372;SDS011;67656;52.074;4.758;2023-07-13T01:56:11;11.38;;;2.22;;
78372;SDS011;67656;52.074;4.758;2023-07-13T02:01:11;9.38;;;1.73;;
78372;SDS011;67656;52.074;4.758;2023-07-13T02:06:12;8.23;;;1.90;;
78372;SDS011;67656;52.074;4.758;2023-07-13T02:11:12;4.15;;;1.40;;
78372;SDS011;67656;52.074;4.758;2023-07-13T02:16:13;6.43;;;1.80;;
78372;SDS011;67656;52.074;4.758;2023-07-13T02:21:13;5.13;;;1.20;;
78372;SDS011;67656;52.074;4.758;2023-07-13T02:26:14;3.85;;;1.30;;
78372;SDS011;67656;52.074;4.758;2023-07-13T02:31:15;6.53;;;1.38;;
78372;SDS011;67656;52.074;4.758;2023-07-13T02:36:16;4.15;;;1.20;;
78372;SDS011;67656;52.074;4.758;2023-07-13T02:41:18;5.10;;;1.55;;
78372;SDS011;67656;52.074;4.758;2023-07-13T02:46:20;6.28;;;1.42;;
78372;SDS011;67656;52.074;4.758;2023-07-13T02:51:20;5.78;;;1.30;;
78372;SDS011;67656;52.074;4.758;2023-07-13T02:56:24;6.63;;;1.35;;
78372;SDS011;67656;52.074;4.758;2023-07-13T03:01:27;7.85;;;1.48;;
78372;SDS011;67656;52.074;4.758;2023-07-13T03:06:27;6.28;;;1.48;;
78372;SDS011;67656;52.074;4.758;2023-07-13T03:11:28;5.90;;;1.40;;
78372;SDS011;67656;52.074;4.758;2023-07-13T03:16:37;5.68;;;1.35;;
78372;SDS011;67656;52.074;4.758;2023-07-13T03:21:37;8.80;;;1.50;;
78372;SDS011;67656;52.074;4.758;2023-07-13T03:26:38;7.28;;;1.73;;
78372;SDS011;67656;52.074;4.758;2023-07-13T03:31:40;11.48;;;1.75;;
78372;SDS011;67656;52.074;4.758;2023-07-13T03:36:41;9.68;;;1.90;;
78372;SDS011;67656;52.074;4.758;2023-07-13T03:41:44;12.10;;;2.00;;
78372;SDS011;67656;52.074;4.758;2023-07-13T03:46:46;7.95;;;2.50;;
78372;SDS011;67656;52.074;4.758;2023-07-13T03:51:48;13.55;;;2.50;;
78372;SDS011;67656;52.074;4.758;2023-07-13T03:56:49;6.13;;;2.00;;
78372;SDS011;67656;52.074;4.758;2023-07-13T04:01:52;10.88;;;2.38;;
78372;SDS011;67656;52.074;4.758;2023-07-13T04:06:52;10.10;;;2.55;;
78372;SDS011;67656;52.074;4.758;2023-07-13T04:11:53;8.95;;;2.45;;
78372;SDS011;67656;52.074;4.758;2023-07-13T04:16:53;12.70;;;2.67;;
78372;SDS011;67656;52.074;4.758;2023-07-13T04:21:54;12.43;;;2.70;;
78372;SDS011;67656;52.074;4.758;2023-07-13T04:26:54;9.70;;;2.33;;
78372;SDS011;67656;52.074;4.758;2023-07-13T04:31:54;12.18;;;2.47;;
78372;SDS011;67656;52.074;4.758;2023-07-13T04:36:55;12.15;;;2.58;;
78372;SDS011;67656;52.074;4.758;2023-07-13T04:41:55;10.77;;;2.50;;
78372;SDS011;67656;52.074;4.758;2023-07-13T04:46:56;15.75;;;3.05;;
78372;SDS011;67656;52.074;4.758;2023-07-13T04:51:56;16.45;;;3.47;;
78372;SDS011;67656;52.074;4.758;2023-07-13T04:56:57;15.77;;;3.10;;
78372;SDS011;67656;52.074;4.758;2023-07-13T05:01:57;15.45;;;3.20;;
78372;SDS011;67656;52.074;4.758;2023-07-13T05:06:58;20.30;;;3.78;;
78372;SDS011;67656;52.074;4.758;2023-07-13T05:11:59;18.48;;;3.30;;
78372;SDS011;67656;52.074;4.758;2023-07-13T05:17:00;14.93;;;3.47;;
78372;SDS011;67656;52.074;4.758;2023-07-13T05:22:00;10.45;;;2.50;;
78372;SDS011;67656;52.074;4.758;2023-07-13T05:27:01;13.18;;;2.63;;
78372;SDS011;67656;52.074;4.758;2023-07-13T05:32:01;13.43;;;2.78;;
78372;SDS011;67656;52.074;4.758;2023-07-13T05:37:02;10.98;;;3.00;;
78372;SDS011;67656;52.074;4.758;2023-07-13T05:42:03;14.82;;;2.42;;
78372;SDS011;67656;52.074;4.758;2023-07-13T05:47:03;10.73;;;2.47;;
78372;SDS011;67656;52.074;4.758;2023-07-13T05:52:04;7.65;;;2.17;;
78372;SDS011;67656;52.074;4.758;2023-07-13T05:57:06;10.30;;;2.35;;
78372;SDS011;67656;52.074;4.758;2023-07-13T06:02:08;8.00;;;2.00;;
78372;SDS011;67656;52.074;4.758;2023-07-13T06:07:10;11.20;;;2.13;;
78372;SDS011;67656;52.074;4.758;2023-07-13T06:12:12;7.60;;;2.28;;
78372;SDS011;67656;52.074;4.758;2023-07-13T06:17:13;11.00;;;2.10;;
78372;SDS011;67656;52.074;4.758;2023-07-13T06:22:13;8.57;;;2.15;;
78372;SDS011;67656;52.074;4.758;2023-07-13T06:27:14;10.98;;;2.30;;
78372;SDS011;67656;52.074;4.758;2023-07-13T06:32:15;12.10;;;3.08;;
78372;SDS011;67656;52.074;4.758;2023-07-13T06:37:16;7.80;;;2.30;;
78372;SDS011;67656;52.074;4.758;2023-07-13T06:42:16;7.25;;;1.90;;
78372;SDS011;67656;52.074;4.758;2023-07-13T06:47:17;5.03;;;1.90;;
78372;SDS011;67656;52.074;4.758;2023-07-13T06:52:17;7.75;;;2.55;;
78372;SDS011;67656;52.074;4.758;2023-07-13T06:57:18;3.75;;;2.17;;
78372;SDS011;67656;52.074;4.758;2023-07-13T07:02:19;9.50;;;2.22;;
78372;SDS011;67656;52.074;4.758;2023-07-13T07:07:19;7.35;;;2.00;;
78372;SDS011;67656;52.074;4.758;2023-07-13T07:12:20;4.95;;;2.10;;
78372;SDS011;67656;52.074;4.758;2023-07-13T07:17:20;4.57;;;1.58;;
78372;SDS011;67656;52.074;4.758;2023-07-13T07:22:21;6.10;;;1.65;;
78372;SDS011;67656;52.074;4.758;2023-07-13T07:27:22;4.13;;;1.23;;
78372;SDS011;67656;52.074;4.758;2023-07-13T07:32:22;4.35;;;1.42;;
78372;SDS011;67656;52.074;4.758;2023-07-13T07:37:23;5.07;;;1.60;;
78372;SDS011;67656;52.074;4.758;2023-07-13T07:42:24;6.40;;;2.13;;
78372;SDS011;67656;52.074;4.758;2023-07-13T07:47:26;7.88;;;2.42;;
78372;SDS011;67656;52.074;4.758;2023-07-13T07:52:26;5.30;;;2.20;;
78372;SDS011;67656;52.074;4.758;2023-07-13T07:57:27;6.60;;;2.38;;
78372;SDS011;67656;52.074;4.758;2023-07-13T08:02:27;5.03;;;1.92;;
78372;SDS011;67656;52.074;4.758;2023-07-13T08:07:29;7.00;;;2.35;;
78372;SDS011;67656;52.074;4.758;2023-07-13T08:12:33;7.07;;;2.03;;
78372;SDS011;67656;52.074;4.758;2023-07-13T08:17:35;5.00;;;2.22;;
78372;SDS011;67656;52.074;4.758;2023-07-13T08:22:35;9.88;;;2.35;;
78372;SDS011;67656;52.074;4.758;2023-07-13T08:27:35;5.47;;;2.00;;
78372;SDS011;67656;52.074;4.758;2023-07-13T08:32:36;7.80;;;2.42;;
78372;SDS011;67656;52.074;4.758;2023-07-13T08:37:37;7.10;;;2.53;;
78372;SDS011;67656;52.074;4.758;2023-07-13T08:42:49;6.68;;;2.17;;
78372;SDS011;67656;52.074;4.758;2023-07-13T08:47:59;6.05;;;2.28;;
78372;SDS011;67656;52.074;4.758;2023-07-13T08:53:04;7.20;;;2.63;;
78372;SDS011;67656;52.074;4.758;2023-07-13T08:58:09;7.38;;;2.85;;
78372;SDS011;67656;52.074;4.758;2023-07-13T09:03:16;3.95;;;2.15;;
78372;SDS011;67656;52.074;4.758;2023-07-13T09:08:36;5.03;;;2.50;;
78372;SDS011;67656;52.074;4.758;2023-07-13T09:18:56;5.15;;;2.47;;
78372;SDS011;67656;52.074;4.758;2023-07-13T09:24:19;7.72;;;2.20;;
78372;SDS011;67656;52.074;4.758;2023-07-13T09:29:29;7.78;;;2.03;;
78372;SDS011;67656;52.074;4.758;2023-07-13T09:34:33;8.55;;;2.08;;
78372;SDS011;67656;52.074;4.758;2023-07-13T09:39:38;7.85;;;2.40;;
78372;SDS011;67656;52.074;4.758;2023-07-13T09:49:47;5.07;;;2.20;;
78372;SDS011;67656;52.074;4.758;2023-07-13T09:54:53;3.55;;;2.20;;
78372;SDS011;67656;52.074;4.758;2023-07-13T09:59:55;3.92;;;1.98;;
78372;SDS011;67656;52.074;4.758;2023-07-13T10:04:56;5.10;;;2.20;;
78372;SDS011;67656;52.074;4.758;2023-07-13T10:10:00;7.72;;;2.08;;
78372;SDS011;67656;52.074;4.758;2023-07-13T10:15:01;8.07;;;2.47;;
78372;SDS011;67656;52.074;4.758;2023-07-13T10:20:04;6.10;;;2.22;;
78372;SDS011;67656;52.074;4.758;2023-07-13T10:25:15;5.57;;;2.60;;
78372;SDS011;67656;52.074;4.758;2023-07-13T10:35:25;6.65;;;2.72;;
78372;SDS011;67656;52.074;4.758;2023-07-13T10:45:40;7.43;;;2.20;;
78372;SDS011;67656;52.074;4.758;2023-07-13T10:50:42;3.10;;;1.52;;
78372;SDS011;67656;52.074;4.758;2023-07-13T11:06:28;7.22;;;1.90;;
78372;SDS011;67656;52.074;4.758;2023-07-13T11:27:18;5.70;;;2.00;;
78372;SDS011;67656;52.074;4.758;2023-07-13T11:32:44;4.97;;;1.85;;
78372;SDS011;67656;52.074;4.758;2023-07-13T11:37:51;6.47;;;2.08;;
78372;SDS011;67656;52.074;4.758;2023-07-13T11:42:51;7.00;;;1.92;;
78372;SDS011;67656;52.074;4.758;2023-07-13T11:47:52;3.65;;;1.80;;
78372;SDS011;67656;52.074;4.758;2023-07-13T11:52:52;2.97;;;1.88;;
78372;SDS011;67656;52.074;4.758;2023-07-13T11:58:16;3.35;;;1.52;;
78372;SDS011;67656;52.074;4.758;2023-07-13T12:03:38;5.10;;;1.77;;
78372;SDS011;67656;52.074;4.758;2023-07-13T12:08:51;4.63;;;1.77;;
78372;SDS011;67656;52.074;4.758;2023-07-13T12:14:05;3.63;;;1.42;;
78372;SDS011;67656;52.074;4.758;2023-07-13T12:19:09;2.88;;;1.80;;
78372;SDS011;67656;52.074;4.758;2023-07-13T12:24:18;5.27;;;1.83;;
78372;SDS011;67656;52.074;4.758;2023-07-13T12:29:21;5.93;;;1.92;;
78372;SDS011;67656;52.074;4.758;2023-07-13T12:34:22;3.88;;;1.80;;
78372;SDS011;67656;52.074;4.758;2023-07-13T12:39:34;3.28;;;1.75;;
78372;SDS011;67656;52.074;4.758;2023-07-13T12:44:39;4.85;;;1.77;;
78372;SDS011;67656;52.074;4.758;2023-07-13T12:49:54;5.93;;;2.08;;
78372;SDS011;67656;52.074;4.758;2023-07-13T12:55:12;4.30;;;1.90;;
78372;SDS011;67656;52.074;4.758;2023-07-13T13:05:31;4.57;;;1.58;;
78372;SDS011;67656;52.074;4.758;2023-07-13T13:10:33;3.57;;;1.60;;
78372;SDS011;67656;52.074;4.758;2023-07-13T13:15:33;3.55;;;1.73;;
78372;SDS011;67656;52.074;4.758;2023-07-13T13:20:34;2.63;;;1.48;;
78372;SDS011;67656;52.074;4.758;2023-07-13T13:25:34;4.80;;;1.63;;
78372;SDS011;67656;52.074;4.758;2023-07-13T13:30:35;4.68;;;1.50;;
78372;SDS011;67656;52.074;4.758;2023-07-13T13:41:12;4.95;;;1.70;;
78372;SDS011;67656;52.074;4.758;2023-07-13T13:46:18;4.47;;;2.03;;
78372;SDS011;67656;52.074;4.758;2023-07-13T13:51:21;4.30;;;1.60;;
78372;SDS011;67656;52.074;4.758;2023-07-13T13:56:23;2.30;;;1.40;;
78372;SDS011;67656;52.074;4.758;2023-07-13T14:01:30;4.28;;;1.30;;
78372;SDS011;67656;52.074;4.758;2023-07-13T14:06:31;3.40;;;1.30;;
78372;SDS011;67656;52.074;4.758;2023-07-13T14:11:33;5.32;;;1.50;;
78372;SDS011;67656;52.074;4.758;2023-07-13T14:16:34;2.78;;;1.20;;
78372;SDS011;67656;52.074;4.758;2023-07-13T14:21:35;5.68;;;1.20;;
78372;SDS011;67656;52.074;4.758;2023-07-13T14:26:52;4.25;;;1.30;;
78372;SDS011;67656;52.074;4.758;2023-07-13T14:31:52;3.60;;;1.10;;
78372;SDS011;67656;52.074;4.758;2023-07-13T14:36:58;3.70;;;1.20;;
78372;SDS011;67656;52.074;4.758;2023-07-13T14:41:59;2.22;;;1.08;;
78372;SDS011;67656;52.074;4.758;2023-07-13T14:47:00;1.95;;;1.10;;
78372;SDS011;67656;52.074;4.758;2023-07-13T14:57:21;3.00;;;1.02;;
78372;SDS011;67656;52.074;4.758;2023-07-13T15:02:29;4.75;;;1.50;;
78372;SDS011;67656;52.074;4.758;2023-07-13T15:07:33;2.90;;;1.02;;
78372;SDS011;67656;52.074;4.758;2023-07-13T15:12:33;2.90;;;1.10;;
78372;SDS011;67656;52.074;4.758;2023-07-13T15:23:13;3.38;;;1.20;;
78372;SDS011;67656;52.074;4.758;2023-07-13T15:28:14;3.00;;;1.25;;
78372;SDS011;67656;52.074;4.758;2023-07-13T15:33:28;3.38;;;1.40;;
78372;SDS011;67656;52.074;4.758;2023-07-13T15:38:43;4.00;;;1.17;;
78372;SDS011;67656;52.074;4.758;2023-07-13T15:43:44;4.70;;;1.15;;
78372;SDS011;67656;52.074;4.758;2023-07-13T15:48:45;2.85;;;1.30;;
78372;SDS011;67656;52.074;4.758;2023-07-13T15:53:48;4.55;;;1.13;;
78372;SDS011;67656;52.074;4.758;2023-07-13T15:58:50;3.25;;;1.30;;
78372;SDS011;67656;52.074;4.758;2023-07-13T16:04:01;3.50;;;1.33;;
78372;SDS011;67656;52.074;4.758;2023-07-13T16:09:19;2.10;;;1.20;;
78372;SDS011;67656;52.074;4.758;2023-07-13T16:14:23;3.10;;;1.23;;
78372;SDS011;67656;52.074;4.758;2023-07-13T16:19:23;2.70;;;1.00;;
78372;SDS011;67656;52.074;4.758;2023-07-13T16:24:24;4.32;;;1.38;;
78372;SDS011;67656;52.074;4.758;2023-07-13T16:29:25;3.85;;;1.38;;
78372;SDS011;67656;52.074;4.758;2023-07-13T16:34:35;4.22;;;1.40;;
78372;SDS011;67656;52.074;4.758;2023-07-13T16:39:54;4.95;;;1.40;;
78372;SDS011;67656;52.074;4.758;2023-07-13T16:44:56;3.13;;;1.50;;
78372;SDS011;67656;52.074;4.758;2023-07-13T16:49:58;6.00;;;1.97;;
78372;SDS011;67656;52.074;4.758;2023-07-13T16:55:01;4.72;;;1.50;;
78372;SDS011;67656;52.074;4.758;2023-07-13T17:00:08;6.28;;;1.45;;
78372;SDS011;67656;52.074;4.758;2023-07-13T17:10:42;4.70;;;1.60;;
78372;SDS011;67656;52.074;4.758;2023-07-13T17:15:44;5.03;;;1.50;;
78372;SDS011;67656;52.074;4.758;2023-07-13T17:20:50;4.72;;;1.65;;
78372;SDS011;67656;52.074;4.758;2023-07-13T17:25:54;4.15;;;1.30;;
78372;SDS011;67656;52.074;4.758;2023-07-13T17:30:55;4.63;;;1.50;;
78372;SDS011;67656;52.074;4.758;2023-07-13T17:35:58;4.85;;;1.38;;
78372;SDS011;67656;52.074;4.758;2023-07-13T17:41:00;5.32;;;1.40;;
78372;SDS011;67656;52.074;4.758;2023-07-13T17:46:01;4.55;;;1.55;;
78372;SDS011;67656;52.074;4.758;2023-07-13T17:51:02;4.30;;;1.58;;
78372;SDS011;67656;52.074;4.758;2023-07-13T17:56:02;5.63;;;1.40;;
78372;SDS011;67656;52.074;4.758;2023-07-13T18:01:03;5.60;;;1.20;;
78372;SDS011;67656;52.074;4.758;2023-07-13T18:06:05;3.67;;;1.60;;
78372;SDS011;67656;52.074;4.758;2023-07-13T18:11:10;3.00;;;1.40;;
78372;SDS011;67656;52.074;4.758;2023-07-13T18:16:14;3.17;;;1.10;;
78372;SDS011;67656;52.074;4.758;2023-07-13T18:21:17;3.83;;;1.25;;
78372;SDS011;67656;52.074;4.758;2023-07-13T18:26:18;3.67;;;1.10;;
78372;SDS011;67656;52.074;4.758;2023-07-13T18:31:20;3.97;;;1.23;;
78372;SDS011;67656;52.074;4.758;2023-07-13T18:36:22;3.20;;;1.20;;
78372;SDS011;67656;52.074;4.758;2023-07-13T18:41:23;3.25;;;1.40;;
78372;SDS011;67656;52.074;4.758;2023-07-13T18:46:25;3.22;;;1.10;;
78372;SDS011;67656;52.074;4.758;2023-07-13T18:51:27;5.40;;;1.67;;
78372;SDS011;67656;52.074;4.758;2023-07-13T18:56:28;4.05;;;1.33;;
78372;SDS011;67656;52.074;4.758;2023-07-13T19:01:40;4.35;;;1.40;;
78372;SDS011;67656;52.074;4.758;2023-07-13T19:12:38;4.68;;;1.45;;
78372;SDS011;67656;52.074;4.758;2023-07-13T19:17:54;5.65;;;1.48;;
78372;SDS011;67656;52.074;4.758;2023-07-13T19:23:02;6.95;;;1.50;;
78372;SDS011;67656;52.074;4.758;2023-07-13T19:28:26;3.78;;;1.40;;
78372;SDS011;67656;52.074;4.758;2023-07-13T19:33:35;4.45;;;1.27;;
78372;SDS011;67656;52.074;4.758;2023-07-13T19:38:39;3.03;;;1.40;;
78372;SDS011;67656;52.074;4.758;2023-07-13T19:43:39;4.40;;;1.20;;
78372;SDS011;67656;52.074;4.758;2023-07-13T19:48:41;8.35;;;1.70;;
78372;SDS011;67656;52.074;4.758;2023-07-13T19:53:42;5.95;;;1.45;;
78372;SDS011;67656;52.074;4.758;2023-07-13T19:58:45;4.68;;;1.33;;
78372;SDS011;67656;52.074;4.758;2023-07-13T20:03:48;2.15;;;1.25;;
78372;SDS011;67656;52.074;4.758;2023-07-13T20:08:49;6.05;;;1.20;;
78372;SDS011;67656;52.074;4.758;2023-07-13T20:13:49;4.65;;;1.30;;
78372;SDS011;67656;52.074;4.758;2023-07-13T20:18:50;4.18;;;1.30;;
78372;SDS011;67656;52.074;4.758;2023-07-13T20:23:51;5.45;;;1.23;;
78372;SDS011;67656;52.074;4.758;2023-07-13T20:28:51;4.03;;;1.27;;
78372;SDS011;67656;52.074;4.758;2023-07-13T20:33:52;4.90;;;1.20;;
78372;SDS011;67656;52.074;4.758;2023-07-13T20:38:55;5.50;;;1.70;;
78372;SDS011;67656;52.074;4.758;2023-07-13T20:44:29;3.28;;;1.25;;
78372;SDS011;67656;52.074;4.758;2023-07-13T20:49:25;4.82;;;1.38;;
78372;SDS011;67656;52.074;4.758;2023-07-13T20:54:25;4.70;;;1.20;;
78372;SDS011;67656;52.074;4.758;2023-07-13T21:05:40;3.63;;;1.30;;
78372;SDS011;67656;52.074;4.758;2023-07-13T21:10:43;6.15;;;1.38;;
78372;SDS011;67656;52.074;4.758;2023-07-13T21:15:45;2.22;;;1.10;;
78372;SDS011;67656;52.074;4.758;2023-07-13T21:20:49;2.55;;;1.25;;
78372;SDS011;67656;52.074;4.758;2023-07-13T21:25:53;3.30;;;1.25;;
78372;SDS011;67656;52.074;4.758;2023-07-13T21:30:55;5.93;;;1.40;;
78372;SDS011;67656;52.074;4.758;2023-07-13T21:36:01;6.38;;;1.50;;
78372;SDS011;67656;52.074;4.758;2023-07-13T21:41:14;4.70;;;1.50;;
78372;SDS011;67656;52.074;4.758;2023-07-13T21:46:21;4.70;;;1.42;;
78372;SDS011;67656;52.074;4.758;2023-07-13T21:51:24;3.10;;;1.50;;
78372;SDS011;67656;52.074;4.758;2023-07-13T21:56:28;5.68;;;1.40;;
78372;SDS011;67656;52.074;4.758;2023-07-13T22:01:29;2.85;;;1.30;;
78372;SDS011;67656;52.074;4.758;2023-07-13T22:06:32;4.03;;;1.70;;
78372;SDS011;67656;52.074;4.758;2023-07-13T22:11:34;6.03;;;1.40;;
78372;SDS011;67656;52.074;4.758;2023-07-13T22:16:35;5.28;;;1.50;;
78372;SDS011;67656;52.074;4.758;2023-07-13T22:21:36;5.65;;;1.52;;
78372;SDS011;67656;52.074;4.758;2023-07-13T22:26:36;3.40;;;1.58;;
78372;SDS011;67656;52.074;4.758;2023-07-13T22:31:37;7.55;;;1.70;;
78372;SDS011;67656;52.074;4.758;2023-07-13T22:36:38;3.92;;;1.60;;
78372;SDS011;67656;52.074;4.758;2023-07-13T22:41:39;8.05;;;1.55;;
78372;SDS011;67656;52.074;4.758;2023-07-13T22:46:40;5.82;;;1.70;;
78372;SDS011;67656;52.074;4.758;2023-07-13T22:51:40;7.80;;;1.63;;
78372;SDS011;67656;52.074;4.758;2023-07-13T22:56:41;6.65;;;1.65;;
78372;SDS011;67656;52.074;4.758;2023-07-13T23:01:41;4.03;;;1.67;;
78372;SDS011;67656;52.074;4.758;2023-07-13T23:06:42;6.07;;;1.70;;
78372;SDS011;67656;52.074;4.758;2023-07-13T23:11:44;3.22;;;1.63;;
78372;SDS011;67656;52.074;4.758;2023-07-13T23:16:45;3.33;;;1.60;;
78372;SDS011;67656;52.074;4.758;2023-07-13T23:21:47;6.75;;;1.80;;
78372;SDS011;67656;52.074;4.758;2023-07-13T23:26:50;5.50;;;2.08;;
78372;SDS011;67656;52.074;4.758;2023-07-13T23:31:51;7.05;;;1.90;;
78372;SDS011;67656;52.074;4.758;2023-07-13T23:36:52;6.38;;;2.33;;
78372;SDS011;67656;52.074;4.758;2023-07-13T23:41:52;8.70;;;2.17;;
78372;SDS011;67656;52.074;4.758;2023-07-13T23:46:53;8.00;;;2.33;;
78372;SDS011;67656;52.074;4.758;2023-07-13T23:51:56;5.82;;;2.15;;
78372;SDS011;67656;52.074;4.758;2023-07-13T23:56:59;7.60;;;2.33;;
